sensor_id;sensor_type;location;lat;lon;timestamp;P1;durP1;ratioP1;P2;durP2;ratioP2
41946;SDS011;27638;42.184;24.848;2023-06-26T00:01:27;11.70;;;4.95;;
41946;SDS011;27638;42.184;24.848;2023-06-26T00:03:58;9.27;;;5.35;;
41946;SDS011;27638;42.184;24.848;2023-06-26T00:06:25;26.15;;;12.00;;
41946;SDS011;27638;42.184;24.848;2023-06-26T00:08:54;11.00;;;5.85;;
41946;SDS011;27638;42.184;24.848;2023-06-26T00:11:21;10.32;;;5.07;;
41946;SDS011;27638;42.184;24.848;2023-06-26T00:13:47;10.75;;;5.70;;
41946;SDS011;27638;42.184;24.848;2023-06-26T00:16:12;10.68;;;5.63;;
41946;SDS011;27638;42.184;24.848;2023-06-26T00:18:38;8.75;;;6.10;;
41946;SDS011;27638;42.184;24.848;2023-06-26T00:21:03;9.68;;;5.25;;
41946;SDS011;27638;42.184;24.848;2023-06-26T00:23:29;11.07;;;5.90;;
41946;SDS011;27638;42.184;24.848;2023-06-26T00:25:56;12.15;;;5.75;;
41946;SDS011;27638;42.184;24.848;2023-06-26T00:28:21;12.98;;;6.95;;
41946;SDS011;27638;42.184;24.848;2023-06-26T00:30:47;12.38;;;5.90;;
41946;SDS011;27638;42.184;24.848;2023-06-26T00:33:12;12.13;;;6.03;;
41946;SDS011;27638;42.184;24.848;2023-06-26T00:35:38;12.57;;;6.53;;
41946;SDS011;27638;42.184;24.848;2023-06-26T00:38:03;10.23;;;6.25;;
41946;SDS011;27638;42.184;24.848;2023-06-26T00:40:28;10.88;;;6.22;;
41946;SDS011;27638;42.184;24.848;2023-06-26T00:42:55;12.23;;;6.43;;
41946;SDS011;27638;42.184;24.848;2023-06-26T00:45:20;10.55;;;5.90;;
41946;SDS011;27638;42.184;24.848;2023-06-26T00:47:46;9.77;;;6.40;;
41946;SDS011;27638;42.184;24.848;2023-06-26T00:50:11;12.43;;;6.13;;
41946;SDS011;27638;42.184;24.848;2023-06-26T00:52:38;12.88;;;6.97;;
41946;SDS011;27638;42.184;24.848;2023-06-26T00:55:04;16.77;;;6.82;;
41946;SDS011;27638;42.184;24.848;2023-06-26T00:57:30;11.20;;;7.53;;
41946;SDS011;27638;42.184;24.848;2023-06-26T00:59:56;14.27;;;6.70;;
41946;SDS011;27638;42.184;24.848;2023-06-26T01:02:22;12.57;;;6.38;;
41946;SDS011;27638;42.184;24.848;2023-06-26T01:04:48;12.27;;;6.78;;
41946;SDS011;27638;42.184;24.848;2023-06-26T01:07:15;14.38;;;6.90;;
41946;SDS011;27638;42.184;24.848;2023-06-26T01:09:43;17.70;;;7.35;;
41946;SDS011;27638;42.184;24.848;2023-06-26T01:12:11;12.90;;;7.15;;
41946;SDS011;27638;42.184;24.848;2023-06-26T01:14:36;11.85;;;6.35;;
41946;SDS011;27638;42.184;24.848;2023-06-26T01:17:02;15.30;;;8.05;;
41946;SDS011;27638;42.184;24.848;2023-06-26T01:19:29;15.48;;;7.78;;
41946;SDS011;27638;42.184;24.848;2023-06-26T01:22:00;13.70;;;7.25;;
41946;SDS011;27638;42.184;24.848;2023-06-26T01:24:39;16.00;;;7.25;;
41946;SDS011;27638;42.184;24.848;2023-06-26T01:27:25;17.48;;;8.18;;
41946;SDS011;27638;42.184;24.848;2023-06-26T01:29:52;18.55;;;10.13;;
41946;SDS011;27638;42.184;24.848;2023-06-26T01:32:19;16.52;;;8.40;;
41946;SDS011;27638;42.184;24.848;2023-06-26T01:34:45;23.10;;;11.20;;
41946;SDS011;27638;42.184;24.848;2023-06-26T01:37:10;32.78;;;16.38;;
41946;SDS011;27638;42.184;24.848;2023-06-26T01:39:36;35.03;;;16.25;;
41946;SDS011;27638;42.184;24.848;2023-06-26T01:42:01;28.00;;;13.48;;
41946;SDS011;27638;42.184;24.848;2023-06-26T01:44:31;23.70;;;11.32;;
41946;SDS011;27638;42.184;24.848;2023-06-26T01:47:03;20.33;;;9.75;;
41946;SDS011;27638;42.184;24.848;2023-06-26T01:52:59;20.50;;;10.93;;
41946;SDS011;27638;42.184;24.848;2023-06-26T01:57:49;22.48;;;11.20;;
41946;SDS011;27638;42.184;24.848;2023-06-26T02:00:19;20.85;;;10.45;;
41946;SDS011;27638;42.184;24.848;2023-06-26T02:02:46;14.30;;;8.38;;
41946;SDS011;27638;42.184;24.848;2023-06-26T02:05:12;15.90;;;8.50;;
41946;SDS011;27638;42.184;24.848;2023-06-26T02:07:38;16.20;;;9.27;;
41946;SDS011;27638;42.184;24.848;2023-06-26T02:10:04;20.70;;;9.20;;
41946;SDS011;27638;42.184;24.848;2023-06-26T02:12:30;17.73;;;7.82;;
41946;SDS011;27638;42.184;24.848;2023-06-26T02:14:55;15.50;;;8.07;;
41946;SDS011;27638;42.184;24.848;2023-06-26T02:17:21;15.55;;;8.00;;
41946;SDS011;27638;42.184;24.848;2023-06-26T02:19:46;20.23;;;8.32;;
41946;SDS011;27638;42.184;24.848;2023-06-26T02:22:15;13.65;;;8.25;;
41946;SDS011;27638;42.184;24.848;2023-06-26T02:24:42;17.10;;;8.15;;
41946;SDS011;27638;42.184;24.848;2023-06-26T02:27:08;14.48;;;8.48;;
41946;SDS011;27638;42.184;24.848;2023-06-26T02:29:34;15.63;;;7.78;;
41946;SDS011;27638;42.184;24.848;2023-06-26T02:32:00;13.95;;;8.20;;
41946;SDS011;27638;42.184;24.848;2023-06-26T02:34:25;15.60;;;7.50;;
41946;SDS011;27638;42.184;24.848;2023-06-26T02:36:51;14.15;;;7.95;;
41946;SDS011;27638;42.184;24.848;2023-06-26T02:39:19;14.93;;;7.32;;
41946;SDS011;27638;42.184;24.848;2023-06-26T02:41:45;12.25;;;7.32;;
41946;SDS011;27638;42.184;24.848;2023-06-26T02:44:10;17.90;;;7.82;;
41946;SDS011;27638;42.184;24.848;2023-06-26T02:46:37;13.27;;;6.38;;
41946;SDS011;27638;42.184;24.848;2023-06-26T02:49:03;13.73;;;6.72;;
41946;SDS011;27638;42.184;24.848;2023-06-26T02:51:28;13.32;;;7.65;;
41946;SDS011;27638;42.184;24.848;2023-06-26T02:53:53;13.82;;;7.28;;
41946;SDS011;27638;42.184;24.848;2023-06-26T02:56:19;13.82;;;7.68;;
41946;SDS011;27638;42.184;24.848;2023-06-26T02:58:44;14.95;;;9.13;;
41946;SDS011;27638;42.184;24.848;2023-06-26T03:01:10;14.82;;;8.45;;
41946;SDS011;27638;42.184;24.848;2023-06-26T03:03:35;15.02;;;7.85;;
41946;SDS011;27638;42.184;24.848;2023-06-26T03:06:05;16.20;;;9.10;;
41946;SDS011;27638;42.184;24.848;2023-06-26T03:08:32;14.25;;;7.50;;
41946;SDS011;27638;42.184;24.848;2023-06-26T03:10:58;15.00;;;9.10;;
41946;SDS011;27638;42.184;24.848;2023-06-26T03:13:23;13.80;;;7.15;;
41946;SDS011;27638;42.184;24.848;2023-06-26T03:15:49;15.57;;;8.65;;
41946;SDS011;27638;42.184;24.848;2023-06-26T03:18:14;17.30;;;8.73;;
41946;SDS011;27638;42.184;24.848;2023-06-26T03:20:40;16.00;;;8.90;;
41946;SDS011;27638;42.184;24.848;2023-06-26T03:23:05;15.88;;;8.85;;
41946;SDS011;27638;42.184;24.848;2023-06-26T03:25:31;16.45;;;9.27;;
41946;SDS011;27638;42.184;24.848;2023-06-26T03:27:57;14.82;;;9.75;;
41946;SDS011;27638;42.184;24.848;2023-06-26T03:30:22;15.77;;;8.88;;
41946;SDS011;27638;42.184;24.848;2023-06-26T03:32:47;17.73;;;10.63;;
41946;SDS011;27638;42.184;24.848;2023-06-26T03:35:13;21.42;;;10.85;;
41946;SDS011;27638;42.184;24.848;2023-06-26T03:37:38;15.00;;;9.68;;
41946;SDS011;27638;42.184;24.848;2023-06-26T03:40:05;16.58;;;9.77;;
41946;SDS011;27638;42.184;24.848;2023-06-26T03:42:31;17.10;;;9.75;;
41946;SDS011;27638;42.184;24.848;2023-06-26T03:44:56;17.77;;;9.20;;
41946;SDS011;27638;42.184;24.848;2023-06-26T03:47:22;17.17;;;11.10;;
41946;SDS011;27638;42.184;24.848;2023-06-26T03:49:47;15.55;;;9.80;;
41946;SDS011;27638;42.184;24.848;2023-06-26T03:52:13;17.48;;;10.45;;
41946;SDS011;27638;42.184;24.848;2023-06-26T03:54:38;18.45;;;9.98;;
41946;SDS011;27638;42.184;24.848;2023-06-26T03:57:04;16.63;;;10.55;;
41946;SDS011;27638;42.184;24.848;2023-06-26T03:59:29;16.15;;;10.48;;
41946;SDS011;27638;42.184;24.848;2023-06-26T04:01:55;16.98;;;9.07;;
41946;SDS011;27638;42.184;24.848;2023-06-26T04:04:20;15.38;;;9.63;;
41946;SDS011;27638;42.184;24.848;2023-06-26T04:06:45;16.08;;;9.50;;
41946;SDS011;27638;42.184;24.848;2023-06-26T04:09:11;17.85;;;9.77;;
41946;SDS011;27638;42.184;24.848;2023-06-26T04:11:36;16.60;;;9.25;;
41946;SDS011;27638;42.184;24.848;2023-06-26T04:14:02;16.98;;;9.07;;
41946;SDS011;27638;42.184;24.848;2023-06-26T04:16:28;17.40;;;11.38;;
41946;SDS011;27638;42.184;24.848;2023-06-26T04:18:53;16.80;;;10.32;;
41946;SDS011;27638;42.184;24.848;2023-06-26T04:21:21;14.57;;;9.80;;
41946;SDS011;27638;42.184;24.848;2023-06-26T04:23:48;14.43;;;10.15;;
41946;SDS011;27638;42.184;24.848;2023-06-26T04:26:14;17.98;;;10.00;;
41946;SDS011;27638;42.184;24.848;2023-06-26T04:28:39;16.13;;;9.40;;
41946;SDS011;27638;42.184;24.848;2023-06-26T04:31:06;16.50;;;9.80;;
41946;SDS011;27638;42.184;24.848;2023-06-26T04:33:32;17.98;;;10.57;;
41946;SDS011;27638;42.184;24.848;2023-06-26T04:35:57;17.05;;;10.07;;
41946;SDS011;27638;42.184;24.848;2023-06-26T04:38:23;20.25;;;11.68;;
41946;SDS011;27638;42.184;24.848;2023-06-26T04:40:48;24.73;;;13.65;;
41946;SDS011;27638;42.184;24.848;2023-06-26T04:43:14;23.48;;;14.80;;
41946;SDS011;27638;42.184;24.848;2023-06-26T04:45:40;24.75;;;17.15;;
41946;SDS011;27638;42.184;24.848;2023-06-26T04:48:05;18.80;;;12.60;;
41946;SDS011;27638;42.184;24.848;2023-06-26T04:50:31;12.23;;;8.90;;
41946;SDS011;27638;42.184;24.848;2023-06-26T04:52:58;15.73;;;9.55;;
41946;SDS011;27638;42.184;24.848;2023-06-26T04:55:24;12.13;;;9.68;;
41946;SDS011;27638;42.184;24.848;2023-06-26T04:57:50;13.43;;;9.70;;
41946;SDS011;27638;42.184;24.848;2023-06-26T05:00:16;15.95;;;10.43;;
41946;SDS011;27638;42.184;24.848;2023-06-26T05:02:41;13.82;;;9.82;;
41946;SDS011;27638;42.184;24.848;2023-06-26T05:05:07;14.32;;;10.35;;
41946;SDS011;27638;42.184;24.848;2023-06-26T05:07:33;13.73;;;10.43;;
41946;SDS011;27638;42.184;24.848;2023-06-26T05:09:58;15.02;;;9.95;;
41946;SDS011;27638;42.184;24.848;2023-06-26T05:12:24;15.05;;;11.30;;
41946;SDS011;27638;42.184;24.848;2023-06-26T05:14:49;14.30;;;10.98;;
41946;SDS011;27638;42.184;24.848;2023-06-26T05:17:15;14.70;;;11.63;;
41946;SDS011;27638;42.184;24.848;2023-06-26T05:19:40;14.73;;;11.70;;
41946;SDS011;27638;42.184;24.848;2023-06-26T05:22:06;16.60;;;10.95;;
41946;SDS011;27638;42.184;24.848;2023-06-26T05:24:35;14.15;;;11.05;;
41946;SDS011;27638;42.184;24.848;2023-06-26T05:27:01;15.55;;;11.05;;
41946;SDS011;27638;42.184;24.848;2023-06-26T05:29:27;21.17;;;12.05;;
41946;SDS011;27638;42.184;24.848;2023-06-26T05:31:53;15.13;;;10.88;;
41946;SDS011;27638;42.184;24.848;2023-06-26T05:34:22;16.20;;;10.13;;
41946;SDS011;27638;42.184;24.848;2023-06-26T05:36:50;17.58;;;11.73;;
41946;SDS011;27638;42.184;24.848;2023-06-26T05:39:17;16.10;;;11.57;;
41946;SDS011;27638;42.184;24.848;2023-06-26T05:41:45;17.63;;;10.90;;
41946;SDS011;27638;42.184;24.848;2023-06-26T05:44:11;13.63;;;10.13;;
41946;SDS011;27638;42.184;24.848;2023-06-26T05:46:36;19.35;;;11.93;;
41946;SDS011;27638;42.184;24.848;2023-06-26T05:49:02;14.75;;;10.05;;
41946;SDS011;27638;42.184;24.848;2023-06-26T05:51:28;15.07;;;11.68;;
41946;SDS011;27638;42.184;24.848;2023-06-26T05:53:54;16.70;;;11.90;;
41946;SDS011;27638;42.184;24.848;2023-06-26T05:56:19;15.73;;;11.38;;
41946;SDS011;27638;42.184;24.848;2023-06-26T05:58:45;17.73;;;12.10;;
41946;SDS011;27638;42.184;24.848;2023-06-26T06:01:11;19.92;;;12.82;;
41946;SDS011;27638;42.184;24.848;2023-06-26T06:03:36;15.38;;;11.88;;
41946;SDS011;27638;42.184;24.848;2023-06-26T06:06:02;20.73;;;12.73;;
41946;SDS011;27638;42.184;24.848;2023-06-26T06:08:28;16.08;;;11.27;;
41946;SDS011;27638;42.184;24.848;2023-06-26T06:10:54;16.08;;;12.07;;
41946;SDS011;27638;42.184;24.848;2023-06-26T06:13:19;17.25;;;11.98;;
41946;SDS011;27638;42.184;24.848;2023-06-26T06:15:44;18.13;;;11.20;;
41946;SDS011;27638;42.184;24.848;2023-06-26T06:18:10;15.55;;;11.45;;
41946;SDS011;27638;42.184;24.848;2023-06-26T06:20:35;17.00;;;10.70;;
41946;SDS011;27638;42.184;24.848;2023-06-26T06:23:01;17.40;;;11.20;;
41946;SDS011;27638;42.184;24.848;2023-06-26T06:25:26;13.93;;;10.45;;
41946;SDS011;27638;42.184;24.848;2023-06-26T06:27:52;16.42;;;10.35;;
41946;SDS011;27638;42.184;24.848;2023-06-26T06:30:17;16.42;;;10.88;;
41946;SDS011;27638;42.184;24.848;2023-06-26T06:32:43;18.45;;;10.80;;
41946;SDS011;27638;42.184;24.848;2023-06-26T06:35:08;14.85;;;10.35;;
41946;SDS011;27638;42.184;24.848;2023-06-26T06:37:37;16.85;;;10.95;;
41946;SDS011;27638;42.184;24.848;2023-06-26T06:40:04;17.17;;;10.50;;
41946;SDS011;27638;42.184;24.848;2023-06-26T06:42:31;15.27;;;10.70;;
41946;SDS011;27638;42.184;24.848;2023-06-26T06:44:58;16.88;;;9.95;;
41946;SDS011;27638;42.184;24.848;2023-06-26T06:47:23;15.15;;;10.13;;
41946;SDS011;27638;42.184;24.848;2023-06-26T06:49:48;13.02;;;9.35;;
41946;SDS011;27638;42.184;24.848;2023-06-26T06:52:14;15.88;;;9.55;;
41946;SDS011;27638;42.184;24.848;2023-06-26T06:54:55;17.95;;;10.13;;
41946;SDS011;27638;42.184;24.848;2023-06-26T06:57:30;14.60;;;10.07;;
41946;SDS011;27638;42.184;24.848;2023-06-26T06:59:55;15.30;;;10.77;;
41946;SDS011;27638;42.184;24.848;2023-06-26T07:02:21;15.57;;;10.32;;
41946;SDS011;27638;42.184;24.848;2023-06-26T07:04:46;12.00;;;10.00;;
41946;SDS011;27638;42.184;24.848;2023-06-26T07:07:12;15.05;;;10.25;;
41946;SDS011;27638;42.184;24.848;2023-06-26T07:09:39;14.98;;;10.20;;
41946;SDS011;27638;42.184;24.848;2023-06-26T07:12:04;12.45;;;9.65;;
41946;SDS011;27638;42.184;24.848;2023-06-26T07:14:30;13.40;;;9.15;;
41946;SDS011;27638;42.184;24.848;2023-06-26T07:16:55;11.50;;;8.98;;
41946;SDS011;27638;42.184;24.848;2023-06-26T07:19:21;10.55;;;8.00;;
41946;SDS011;27638;42.184;24.848;2023-06-26T07:21:46;10.85;;;8.25;;
41946;SDS011;27638;42.184;24.848;2023-06-26T07:24:12;13.38;;;8.93;;
41946;SDS011;27638;42.184;24.848;2023-06-26T07:26:37;11.82;;;8.88;;
41946;SDS011;27638;42.184;24.848;2023-06-26T07:29:03;11.57;;;8.43;;
41946;SDS011;27638;42.184;24.848;2023-06-26T07:31:29;11.02;;;7.72;;
41946;SDS011;27638;42.184;24.848;2023-06-26T07:33:54;12.00;;;8.85;;
41946;SDS011;27638;42.184;24.848;2023-06-26T07:36:19;12.82;;;8.10;;
41946;SDS011;27638;42.184;24.848;2023-06-26T07:38:45;11.38;;;8.82;;
41946;SDS011;27638;42.184;24.848;2023-06-26T07:41:10;13.30;;;8.77;;
41946;SDS011;27638;42.184;24.848;2023-06-26T07:43:36;11.77;;;8.80;;
41946;SDS011;27638;42.184;24.848;2023-06-26T07:46:01;11.68;;;8.30;;
41946;SDS011;27638;42.184;24.848;2023-06-26T07:48:27;9.43;;;7.60;;
41946;SDS011;27638;42.184;24.848;2023-06-26T07:50:52;10.38;;;7.18;;
41946;SDS011;27638;42.184;24.848;2023-06-26T07:53:18;9.20;;;6.97;;
41946;SDS011;27638;42.184;24.848;2023-06-26T07:55:44;8.30;;;6.47;;
41946;SDS011;27638;42.184;24.848;2023-06-26T07:58:09;9.52;;;7.18;;
41946;SDS011;27638;42.184;24.848;2023-06-26T08:00:35;9.00;;;6.70;;
41946;SDS011;27638;42.184;24.848;2023-06-26T08:03:00;9.18;;;7.20;;
41946;SDS011;27638;42.184;24.848;2023-06-26T08:05:26;10.50;;;7.05;;
41946;SDS011;27638;42.184;24.848;2023-06-26T08:07:51;8.07;;;6.47;;
41946;SDS011;27638;42.184;24.848;2023-06-26T08:10:17;8.00;;;7.20;;
41946;SDS011;27638;42.184;24.848;2023-06-26T08:12:42;9.52;;;6.28;;
41946;SDS011;27638;42.184;24.848;2023-06-26T08:15:10;8.80;;;6.63;;
41946;SDS011;27638;42.184;24.848;2023-06-26T08:17:36;8.27;;;6.38;;
41946;SDS011;27638;42.184;24.848;2023-06-26T08:20:02;10.13;;;6.70;;
41946;SDS011;27638;42.184;24.848;2023-06-26T08:22:29;8.07;;;6.47;;
41946;SDS011;27638;42.184;24.848;2023-06-26T08:24:54;9.45;;;6.15;;
41946;SDS011;27638;42.184;24.848;2023-06-26T08:27:19;6.70;;;6.00;;
41946;SDS011;27638;42.184;24.848;2023-06-26T08:29:45;7.55;;;5.88;;
41946;SDS011;27638;42.184;24.848;2023-06-26T08:32:10;8.15;;;6.63;;
41946;SDS011;27638;42.184;24.848;2023-06-26T08:34:36;9.52;;;6.18;;
41946;SDS011;27638;42.184;24.848;2023-06-26T08:37:01;7.53;;;5.90;;
41946;SDS011;27638;42.184;24.848;2023-06-26T08:39:27;7.55;;;6.03;;
41946;SDS011;27638;42.184;24.848;2023-06-26T08:41:53;14.20;;;6.85;;
41946;SDS011;27638;42.184;24.848;2023-06-26T08:44:18;7.90;;;5.20;;
41946;SDS011;27638;42.184;24.848;2023-06-26T08:46:50;6.95;;;4.90;;
41946;SDS011;27638;42.184;24.848;2023-06-26T08:49:25;7.13;;;5.45;;
41946;SDS011;27638;42.184;24.848;2023-06-26T08:51:56;6.97;;;5.13;;
41946;SDS011;27638;42.184;24.848;2023-06-26T08:54:29;10.60;;;6.45;;
41946;SDS011;27638;42.184;24.848;2023-06-26T08:56:59;8.55;;;5.95;;
41946;SDS011;27638;42.184;24.848;2023-06-26T08:59:27;6.68;;;5.47;;
41946;SDS011;27638;42.184;24.848;2023-06-26T09:01:53;7.90;;;5.38;;
41946;SDS011;27638;42.184;24.848;2023-06-26T09:04:19;7.07;;;5.68;;
41946;SDS011;27638;42.184;24.848;2023-06-26T09:06:44;7.22;;;5.60;;
41946;SDS011;27638;42.184;24.848;2023-06-26T09:09:09;7.55;;;5.97;;
41946;SDS011;27638;42.184;24.848;2023-06-26T09:11:35;8.23;;;5.35;;
41946;SDS011;27638;42.184;24.848;2023-06-26T09:14:01;8.20;;;5.70;;
41946;SDS011;27638;42.184;24.848;2023-06-26T09:16:30;7.40;;;5.80;;
41946;SDS011;27638;42.184;24.848;2023-06-26T09:18:55;6.53;;;5.50;;
41946;SDS011;27638;42.184;24.848;2023-06-26T09:21:21;7.13;;;5.50;;
41946;SDS011;27638;42.184;24.848;2023-06-26T09:23:49;9.55;;;5.63;;
41946;SDS011;27638;42.184;24.848;2023-06-26T09:26:15;7.85;;;5.78;;
41946;SDS011;27638;42.184;24.848;2023-06-26T09:28:42;6.53;;;5.82;;
41946;SDS011;27638;42.184;24.848;2023-06-26T09:31:08;7.68;;;5.82;;
41946;SDS011;27638;42.184;24.848;2023-06-26T09:33:36;18.58;;;13.27;;
41946;SDS011;27638;42.184;24.848;2023-06-26T09:36:06;37.28;;;23.77;;
41946;SDS011;27638;42.184;24.848;2023-06-26T09:38:44;9.27;;;8.25;;
41946;SDS011;27638;42.184;24.848;2023-06-26T09:41:09;10.07;;;6.78;;
41946;SDS011;27638;42.184;24.848;2023-06-26T09:43:35;6.97;;;5.10;;
41946;SDS011;27638;42.184;24.848;2023-06-26T09:46:14;8.02;;;5.38;;
41946;SDS011;27638;42.184;24.848;2023-06-26T09:48:41;8.30;;;5.65;;
41946;SDS011;27638;42.184;24.848;2023-06-26T09:51:06;6.15;;;3.95;;
41946;SDS011;27638;42.184;24.848;2023-06-26T09:53:34;10.02;;;3.65;;
41946;SDS011;27638;42.184;24.848;2023-06-26T09:56:04;5.22;;;3.45;;
41946;SDS011;27638;42.184;24.848;2023-06-26T09:58:31;4.53;;;2.95;;
41946;SDS011;27638;42.184;24.848;2023-06-26T10:00:57;5.60;;;3.22;;
41946;SDS011;27638;42.184;24.848;2023-06-26T10:03:23;4.53;;;2.80;;
41946;SDS011;27638;42.184;24.848;2023-06-26T10:05:48;4.22;;;2.92;;
41946;SDS011;27638;42.184;24.848;2023-06-26T10:08:15;5.32;;;3.67;;
41946;SDS011;27638;42.184;24.848;2023-06-26T10:10:42;7.05;;;2.78;;
41946;SDS011;27638;42.184;24.848;2023-06-26T10:13:15;4.15;;;2.50;;
41946;SDS011;27638;42.184;24.848;2023-06-26T10:15:44;4.78;;;2.72;;
41946;SDS011;27638;42.184;24.848;2023-06-26T10:18:11;4.95;;;2.83;;
41946;SDS011;27638;42.184;24.848;2023-06-26T10:20:38;3.55;;;2.80;;
41946;SDS011;27638;42.184;24.848;2023-06-26T10:23:05;3.53;;;2.88;;
41946;SDS011;27638;42.184;24.848;2023-06-26T10:25:34;5.10;;;2.97;;
41946;SDS011;27638;42.184;24.848;2023-06-26T10:28:05;3.70;;;2.67;;
41946;SDS011;27638;42.184;24.848;2023-06-26T10:30:33;4.55;;;2.67;;
41946;SDS011;27638;42.184;24.848;2023-06-26T10:33:01;3.88;;;3.05;;
41946;SDS011;27638;42.184;24.848;2023-06-26T10:35:29;5.60;;;3.40;;
41946;SDS011;27638;42.184;24.848;2023-06-26T10:38:02;4.35;;;3.50;;
41946;SDS011;27638;42.184;24.848;2023-06-26T10:43:11;4.00;;;3.60;;
41946;SDS011;27638;42.184;24.848;2023-06-26T10:45:48;5.22;;;3.45;;
41946;SDS011;27638;42.184;24.848;2023-06-26T10:48:17;6.53;;;3.38;;
41946;SDS011;27638;42.184;24.848;2023-06-26T10:50:43;5.97;;;3.40;;
41946;SDS011;27638;42.184;24.848;2023-06-26T10:55:41;5.03;;;3.13;;
41946;SDS011;27638;42.184;24.848;2023-06-26T11:03:40;5.22;;;3.47;;
41946;SDS011;27638;42.184;24.848;2023-06-26T11:06:10;5.53;;;3.72;;
41946;SDS011;27638;42.184;24.848;2023-06-26T11:08:48;6.68;;;4.00;;
41946;SDS011;27638;42.184;24.848;2023-06-26T11:11:18;5.03;;;4.47;;
41946;SDS011;27638;42.184;24.848;2023-06-26T11:13:45;5.88;;;4.03;;
41946;SDS011;27638;42.184;24.848;2023-06-26T11:16:12;6.22;;;4.30;;
41946;SDS011;27638;42.184;24.848;2023-06-26T11:18:39;5.13;;;4.05;;
41946;SDS011;27638;42.184;24.848;2023-06-26T11:21:08;8.15;;;4.45;;
41946;SDS011;27638;42.184;24.848;2023-06-26T11:23:36;6.65;;;4.97;;
41946;SDS011;27638;42.184;24.848;2023-06-26T11:31:25;7.78;;;5.40;;
41946;SDS011;27638;42.184;24.848;2023-06-26T11:33:57;7.90;;;5.93;;
41946;SDS011;27638;42.184;24.848;2023-06-26T11:36:24;9.25;;;6.35;;
41946;SDS011;27638;42.184;24.848;2023-06-26T11:38:58;7.25;;;5.05;;
41946;SDS011;27638;42.184;24.848;2023-06-26T11:43:52;7.85;;;5.40;;
41946;SDS011;27638;42.184;24.848;2023-06-26T11:46:18;9.93;;;4.90;;
41946;SDS011;27638;42.184;24.848;2023-06-26T11:48:45;6.70;;;4.20;;
41946;SDS011;27638;42.184;24.848;2023-06-26T11:51:12;6.63;;;4.70;;
41946;SDS011;27638;42.184;24.848;2023-06-26T11:53:41;6.05;;;4.45;;
41946;SDS011;27638;42.184;24.848;2023-06-26T11:56:11;5.28;;;3.63;;
41946;SDS011;27638;42.184;24.848;2023-06-26T12:01:35;5.00;;;3.17;;
41946;SDS011;27638;42.184;24.848;2023-06-26T12:04:03;5.10;;;3.75;;
41946;SDS011;27638;42.184;24.848;2023-06-26T12:06:30;4.72;;;3.80;;
41946;SDS011;27638;42.184;24.848;2023-06-26T12:08:59;6.43;;;3.78;;
41946;SDS011;27638;42.184;24.848;2023-06-26T12:11:27;5.65;;;3.55;;
41946;SDS011;27638;42.184;24.848;2023-06-26T12:13:56;6.40;;;3.97;;
41946;SDS011;27638;42.184;24.848;2023-06-26T12:16:21;5.53;;;3.78;;
41946;SDS011;27638;42.184;24.848;2023-06-26T12:18:47;6.10;;;4.47;;
41946;SDS011;27638;42.184;24.848;2023-06-26T12:21:28;5.07;;;4.47;;
41946;SDS011;27638;42.184;24.848;2023-06-26T12:24:03;4.93;;;4.45;;
41946;SDS011;27638;42.184;24.848;2023-06-26T12:26:29;6.75;;;4.40;;
41946;SDS011;27638;42.184;24.848;2023-06-26T12:29:29;4.57;;;3.83;;
41946;SDS011;27638;42.184;24.848;2023-06-26T12:31:53;5.05;;;4.53;;
41946;SDS011;27638;42.184;24.848;2023-06-26T12:34:20;6.60;;;4.63;;
41946;SDS011;27638;42.184;24.848;2023-06-26T12:36:50;5.93;;;4.00;;
41946;SDS011;27638;42.184;24.848;2023-06-26T12:39:16;6.53;;;4.43;;
41946;SDS011;27638;42.184;24.848;2023-06-26T12:41:46;6.72;;;4.47;;
41946;SDS011;27638;42.184;24.848;2023-06-26T12:44:20;6.78;;;4.78;;
41946;SDS011;27638;42.184;24.848;2023-06-26T12:46:57;8.43;;;5.40;;
41946;SDS011;27638;42.184;24.848;2023-06-26T12:49:36;6.80;;;4.43;;
41946;SDS011;27638;42.184;24.848;2023-06-26T12:52:03;7.70;;;5.05;;
41946;SDS011;27638;42.184;24.848;2023-06-26T12:54:30;4.82;;;3.42;;
41946;SDS011;27638;42.184;24.848;2023-06-26T12:56:56;5.20;;;3.50;;
41946;SDS011;27638;42.184;24.848;2023-06-26T12:59:22;3.70;;;3.05;;
41946;SDS011;27638;42.184;24.848;2023-06-26T13:01:48;4.07;;;2.83;;
41946;SDS011;27638;42.184;24.848;2023-06-26T13:04:14;4.35;;;2.97;;
41946;SDS011;27638;42.184;24.848;2023-06-26T13:06:40;3.70;;;2.45;;
41946;SDS011;27638;42.184;24.848;2023-06-26T13:09:06;4.50;;;2.95;;
41946;SDS011;27638;42.184;24.848;2023-06-26T13:11:32;4.57;;;2.90;;
41946;SDS011;27638;42.184;24.848;2023-06-26T13:13:58;4.53;;;3.22;;
41946;SDS011;27638;42.184;24.848;2023-06-26T13:16:24;4.55;;;2.83;;
41946;SDS011;27638;42.184;24.848;2023-06-26T13:18:50;4.03;;;3.10;;
41946;SDS011;27638;42.184;24.848;2023-06-26T13:21:16;4.10;;;3.08;;
41946;SDS011;27638;42.184;24.848;2023-06-26T13:23:43;3.90;;;3.08;;
41946;SDS011;27638;42.184;24.848;2023-06-26T13:26:09;4.68;;;3.30;;
41946;SDS011;27638;42.184;24.848;2023-06-26T13:28:35;5.15;;;3.15;;
41946;SDS011;27638;42.184;24.848;2023-06-26T13:31:01;3.13;;;2.75;;
41946;SDS011;27638;42.184;24.848;2023-06-26T13:33:27;3.85;;;2.97;;
41946;SDS011;27638;42.184;24.848;2023-06-26T13:35:53;3.95;;;2.90;;
41946;SDS011;27638;42.184;24.848;2023-06-26T13:38:21;3.92;;;2.70;;
41946;SDS011;27638;42.184;24.848;2023-06-26T13:40:56;3.85;;;2.70;;
41946;SDS011;27638;42.184;24.848;2023-06-26T13:43:25;5.43;;;3.33;;
41946;SDS011;27638;42.184;24.848;2023-06-26T13:45:52;2.92;;;2.60;;
41946;SDS011;27638;42.184;24.848;2023-06-26T13:48:17;3.47;;;3.17;;
41946;SDS011;27638;42.184;24.848;2023-06-26T13:50:43;4.60;;;2.80;;
41946;SDS011;27638;42.184;24.848;2023-06-26T13:53:09;5.03;;;3.28;;
41946;SDS011;27638;42.184;24.848;2023-06-26T13:55:34;5.47;;;3.20;;
41946;SDS011;27638;42.184;24.848;2023-06-26T13:58:00;6.60;;;3.28;;
41946;SDS011;27638;42.184;24.848;2023-06-26T14:00:30;4.90;;;3.70;;
41946;SDS011;27638;42.184;24.848;2023-06-26T14:02:55;3.85;;;2.92;;
41946;SDS011;27638;42.184;24.848;2023-06-26T14:05:21;3.53;;;3.10;;
41946;SDS011;27638;42.184;24.848;2023-06-26T14:07:47;4.22;;;2.72;;
41946;SDS011;27638;42.184;24.848;2023-06-26T14:10:13;4.03;;;3.15;;
41946;SDS011;27638;42.184;24.848;2023-06-26T14:12:39;3.97;;;3.00;;
41946;SDS011;27638;42.184;24.848;2023-06-26T14:15:05;4.72;;;3.30;;
41946;SDS011;27638;42.184;24.848;2023-06-26T14:17:31;3.75;;;2.70;;
41946;SDS011;27638;42.184;24.848;2023-06-26T14:19:56;5.00;;;2.97;;
41946;SDS011;27638;42.184;24.848;2023-06-26T14:22:22;5.15;;;2.75;;
41946;SDS011;27638;42.184;24.848;2023-06-26T14:24:48;4.40;;;2.80;;
41946;SDS011;27638;42.184;24.848;2023-06-26T14:27:14;4.85;;;2.88;;
41946;SDS011;27638;42.184;24.848;2023-06-26T14:29:39;5.68;;;2.80;;
41946;SDS011;27638;42.184;24.848;2023-06-26T14:32:05;3.72;;;2.90;;
41946;SDS011;27638;42.184;24.848;2023-06-26T14:34:31;4.03;;;2.83;;
41946;SDS011;27638;42.184;24.848;2023-06-26T14:36:57;3.55;;;2.88;;
41946;SDS011;27638;42.184;24.848;2023-06-26T14:39:22;3.47;;;2.78;;
41946;SDS011;27638;42.184;24.848;2023-06-26T14:41:47;4.38;;;2.65;;
41946;SDS011;27638;42.184;24.848;2023-06-26T14:44:13;4.55;;;2.80;;
41946;SDS011;27638;42.184;24.848;2023-06-26T14:46:39;3.28;;;2.50;;
41946;SDS011;27638;42.184;24.848;2023-06-26T14:49:05;3.50;;;2.60;;